Time;durP1;ratioP1;P1;durP2;ratioP2;P2;SDS_P1;SDS_P2;PMS_P1;PMS_P2;Temp;Humidity;BMP_temperature;BMP_pressure;BME280_temperature;BME280_humidity;BME280_pressure;Samples;Min_cycle;Max_cycle;Signal;HPM_P1;HPM_P2
2023/08/14 01:09:22;;;;;;;4.63;3.22;;;;;;;16.02;90.87;101473.16;4719219;27;20459;-89
2023/08/14 01:12:02;;;;;;;3.42;2.90;;;;;;;16.01;90.83;101467.97;4831120;29;20039;-90
2023/08/14 01:14:33;;;;;;;4.75;2.90;;;;;;;16.02;91.23;101474.94;4824794;29;20560;-90
2023/08/14 01:17:07;;;;;;;5.20;2.80;;;;;;;16.04;91.00;101475.72;4828288;29;20022;-89
2023/08/14 01:19:35;;;;;;;4.20;2.40;;;;;;;16.01;90.65;101471.44;4836828;29;20030;-90
2023/08/14 01:29:52;;;;;;;3.88;2.42;;;;;;;15.95;89.16;101470.81;4785997;29;20083;-90
2023/08/14 01:48:27;;;;;;;2.72;2.30;;;;;;;15.75;89.54;101448.78;4859109;29;20101;-90
2023/08/14 01:51:25;;;;;;;4.50;2.95;;;;;;;15.70;89.59;101451.59;4849795;29;20060;-90
2023/08/14 01:54:45;;;;;;;;;;;;;;;;;;;;;
2023/08/14 01:57:39;;;;;;;;;;;;;;;;;;;;;
2023/08/14 02:00:09;;;;;;;3.30;2.50;;;;;;;15.67;90.53;101429.88;4852967;29;20039;-90
2023/08/14 02:02:35;;;;;;;3.90;2.50;;;;;;;15.61;90.89;101421.31;4838140;29;20060;-90
2023/08/14 02:05:00;;;;;;;4.18;2.85;;;;;;;15.59;90.38;101419.66;4860361;29;20060;-90
2023/08/14 02:07:25;;;;;;;4.88;2.53;;;;;;;15.56;90.43;101418.00;4852120;29;20033;-89
2023/08/14 02:09:51;;;;;;;5.65;2.67;;;;;;;15.55;91.65;101428.56;4857072;29;20049;-90
2023/08/14 02:12:16;;;;;;;6.53;2.38;;;;;;;15.54;91.23;101429.47;4841447;29;20067;-91
2023/08/14 02:14:41;;;;;;;4.88;2.60;;;;;;;15.52;90.65;101421.66;4858536;29;20036;-90
2023/08/14 02:17:07;;;;;;;2.97;2.25;;;;;;;15.52;90.63;101410.31;4838186;29;20034;-90
2023/08/14 02:19:32;;;;;;;3.38;2.28;;;;;;;15.50;90.93;101406.88;4841441;29;20104;-91
2023/08/14 02:21:57;;;;;;;2.85;1.90;;;;;;;15.50;90.83;101405.13;4842253;29;20517;-90
2023/08/14 02:24:23;;;;;;;2.85;2.30;;;;;;;15.49;90.11;101400.81;4842794;29;20414;-90
2023/08/14 02:26:48;;;;;;;3.67;2.58;;;;;;;15.45;90.43;101409.69;4829706;29;20041;-90
2023/08/14 02:29:13;;;;;;;4.15;2.85;;;;;;;15.40;90.81;101406.38;4837935;29;20048;-89
2023/08/14 02:31:39;;;;;;;4.65;2.70;;;;;;;15.39;91.00;101402.03;4836502;29;20029;-89
2023/08/14 02:34:05;;;;;;;6.72;2.80;;;;;;;15.41;90.74;101406.34;4843592;29;20030;-90
2023/08/14 02:36:31;;;;;;;3.85;2.70;;;;;;;15.36;90.69;101405.63;4840572;29;20030;-89
2023/08/14 02:38:56;;;;;;;3.47;2.13;;;;;;;15.31;90.31;101402.31;4858108;29;20034;-90
2023/08/14 02:41:22;;;;;;;3.55;2.50;;;;;;;15.29;91.19;101405.00;4861967;29;20470;-90
2023/08/14 02:43:50;;;;;;;4.82;2.65;;;;;;;15.27;91.07;101404.22;4833159;29;20045;-90
2023/08/14 02:46:15;;;;;;;4.10;2.50;;;;;;;15.28;90.40;101405.91;4862109;29;20032;-90
2023/08/14 02:48:41;;;;;;;3.28;2.65;;;;;;;15.30;90.50;101401.47;4840394;29;20037;-90
2023/08/14 02:51:16;;;;;;;6.60;2.42;;;;;;;15.30;90.84;101406.72;4861479;29;20097;-90
2023/08/14 02:54:20;;;;;;;3.85;2.60;;;;;;;15.33;89.62;101410.97;4846084;29;20534;-91
2023/08/14 02:56:48;;;;;;;4.80;3.25;;;;;;;15.31;91.50;101412.81;4843313;29;20052;-90
2023/08/14 02:59:14;;;;;;;4.95;3.08;;;;;;;15.27;92.04;101412.06;4843653;29;20264;-91
2023/08/14 03:01:52;;;;;;;4.95;3.20;;;;;;;15.27;91.90;101417.31;4861444;29;20317;-90
2023/08/14 03:04:20;;;;;;;4.75;3.00;;;;;;;15.25;91.36;101411.25;4846023;29;20308;-91
2023/08/14 03:06:56;;;;;;;3.60;2.80;;;;;;;15.25;91.78;101411.25;4843575;29;20022;-90
2023/08/14 03:12:50;;;;;;;5.38;3.33;;;;;;;15.26;91.96;101415.59;5796894;24;20073;-90
2023/08/14 03:15:20;;;;;;;5.97;3.80;;;;;;;15.22;92.21;101419.22;4859156;29;20057;-91
2023/08/14 03:17:48;;;;;;;4.68;3.63;;;;;;;15.14;91.69;101416.06;4857745;29;20058;-90
2023/08/14 03:25:49;;;;;;;5.68;3.75;;;;;;;15.11;92.13;101411.78;4979546;23;20042;-91
2023/08/14 03:28:14;;;;;;;7.53;3.97;;;;;;;15.12;92.82;101410.00;4843053;29;20154;-90
2023/08/14 03:30:51;;;;;;;6.97;4.43;;;;;;;15.13;93.42;101407.31;4824031;29;20073;-90
2023/08/14 03:33:30;;;;;;;5.70;4.30;;;;;;;15.15;93.14;101407.28;4826492;29;20513;-91
2023/08/14 03:35:57;;;;;;;6.72;4.40;;;;;;;15.15;92.95;101404.66;4826568;29;20034;-90
2023/08/14 03:38:23;;;;;;;8.35;4.70;;;;;;;15.15;93.46;101396.78;4843722;29;20038;-90
2023/08/14 03:40:48;;;;;;;7.90;4.78;;;;;;;15.11;93.91;101396.06;4839715;29;20685;-90
2023/08/14 03:43:14;;;;;;;6.18;4.35;;;;;;;15.11;93.75;101396.06;4824046;29;20127;-90
2023/08/14 03:45:39;;;;;;;5.53;3.95;;;;;;;15.12;93.83;101391.66;4820188;29;20028;-91
2023/08/14 03:48:04;;;;;;;6.95;3.83;;;;;;;15.14;94.05;101390.69;4821746;29;20034;-90
2023/08/14 03:50:30;;;;;;;6.38;4.15;;;;;;;15.16;93.95;101395.88;4823291;29;20101;-90
2023/08/14 03:52:55;;;;;;;6.75;4.38;;;;;;;15.16;93.93;101399.34;4843225;29;20029;-91
2023/08/14 03:55:21;;;;;;;7.53;4.18;;;;;;;15.15;94.15;101397.63;4823674;29;20041;-90
2023/08/14 03:57:46;;;;;;;6.13;3.47;;;;;;;15.15;93.42;101404.66;4825602;29;20053;-91
2023/08/14 04:00:13;;;;;;;5.38;3.72;;;;;;;15.14;92.36;101403.78;4826112;29;20124;-90
2023/08/14 04:02:38;;;;;;;6.65;4.40;;;;;;;15.09;93.03;101407.50;4824725;29;20025;-90
2023/08/14 04:05:04;;;;;;;8.38;4.80;;;;;;;15.07;93.21;101396.19;4826246;29;20037;-90
2023/08/14 04:07:30;;;;;;;6.15;4.28;;;;;;;15.03;93.15;101393.69;4825748;29;20090;-90
2023/08/14 04:09:55;;;;;;;5.38;4.32;;;;;;;15.02;93.61;101397.25;4836962;29;20038;-90
2023/08/14 04:12:20;;;;;;;5.40;4.32;;;;;;;15.00;93.12;101401.69;4825720;29;20033;-89
2023/08/14 04:14:49;;;;;;;6.72;4.28;;;;;;;15.01;93.52;101400.78;4843441;29;20073;-90
2023/08/14 04:17:14;;;;;;;7.28;4.18;;;;;;;15.02;93.40;101399.88;4837146;29;20030;-91
2023/08/14 04:19:40;;;;;;;6.38;4.03;;;;;;;15.00;92.62;101393.81;4808892;29;20034;-90
2023/08/14 04:22:05;;;;;;;5.38;3.92;;;;;;;14.98;92.93;101394.75;4808799;29;20073;-90
2023/08/14 04:24:30;;;;;;;6.75;4.10;;;;;;;14.97;92.37;101398.28;4819825;29;20025;-91
2023/08/14 04:26:56;;;;;;;4.95;3.30;;;;;;;14.95;92.00;101390.50;4812310;29;20042;-89
2023/08/14 04:29:21;;;;;;;4.50;3.20;;;;;;;14.90;92.13;101381.94;4840610;29;20042;-90
2023/08/14 04:31:47;;;;;;;4.05;3.10;;;;;;;14.88;92.67;101383.75;4838241;29;20096;-90
2023/08/14 04:34:12;;;;;;;4.13;3.35;;;;;;;14.83;92.58;101380.47;4842932;29;20045;-90
2023/08/14 04:36:38;;;;;;;5.30;2.90;;;;;;;14.80;91.75;101380.56;4838612;29;20034;-91
2023/08/14 04:39:04;;;;;;;4.45;3.60;;;;;;;14.79;92.65;101381.47;4843484;29;20034;-90
2023/08/14 04:41:29;;;;;;;4.93;3.40;;;;;;;14.79;92.84;101376.22;4841254;29;20036;-91
2023/08/14 04:43:55;;;;;;;3.83;3.20;;;;;;;14.76;92.42;101369.34;4841851;29;20038;-91
2023/08/14 04:46:37;;;;;;;5.60;3.58;;;;;;;14.77;92.36;101370.19;4835752;29;20083;-90
2023/08/14 04:49:03;;;;;;;5.10;3.55;;;;;;;14.75;92.82;101369.38;4829171;29;20062;-90
2023/08/14 04:51:29;;;;;;;7.25;4.00;;;;;;;14.75;93.42;101364.13;4832281;29;20030;-90
2023/08/14 04:53:57;;;;;;;4.60;3.95;;;;;;;14.75;94.21;101366.75;4840415;29;20034;-90
2023/08/14 04:56:23;;;;;;;5.18;3.97;;;;;;;14.78;94.46;101369.28;4832480;29;20539;-90
2023/08/14 04:58:48;;;;;;;4.85;4.00;;;;;;;14.81;94.45;101369.19;4838714;29;20042;-91
2023/08/14 05:01:14;;;;;;;5.63;4.00;;;;;;;14.85;94.65;101363.75;4834017;29;20091;-90
2023/08/14 05:03:40;;;;;;;7.60;3.90;;;;;;;14.88;94.64;101362.78;4836748;29;20509;-90
2023/08/14 05:06:05;;;;;;;5.90;4.20;;;;;;;14.92;94.56;101353.91;4820824;29;20034;-91
2023/08/14 05:08:30;;;;;;;5.93;4.30;;;;;;;14.95;94.61;101356.44;4832068;29;20022;-90
2023/08/14 05:10:56;;;;;;;5.90;3.92;;;;;;;14.98;94.75;101358.09;4834534;29;20673;-91
2023/08/14 05:13:22;;;;;;;5.10;3.90;;;;;;;15.02;95.12;101357.94;4840232;29;20488;-91
2023/08/14 05:15:48;;;;;;;5.28;3.92;;;;;;;15.08;95.39;101353.38;4838724;29;20041;-91
2023/08/14 05:18:14;;;;;;;5.22;3.97;;;;;;;15.15;95.16;101347.00;4833807;29;20039;-90
2023/08/14 05:20:46;;;;;;;6.70;4.50;;;;;;;15.20;95.28;101347.66;4838736;29;20034;-91
2023/08/14 05:23:13;;;;;;;6.25;4.85;;;;;;;15.27;95.96;101332.59;4833670;29;20026;-90
2023/08/14 05:25:38;;;;;;;7.50;5.43;;;;;;;15.33;96.25;101338.44;4815370;29;20054;-91
2023/08/14 05:28:04;;;;;;;9.80;6.03;;;;;;;15.41;96.42;101339.91;4837477;29;20100;-91
2023/08/14 05:30:30;;;;;;;8.50;5.63;;;;;;;15.47;96.85;101342.31;4837749;29;20060;-91
2023/08/14 05:32:55;;;;;;;7.55;6.15;;;;;;;15.53;97.13;101339.47;4836620;29;20466;-90
2023/08/14 05:35:23;;;;;;;8.15;6.50;;;;;;;15.58;96.99;101345.38;4837947;29;20040;-90
2023/08/14 05:37:55;;;;;;;8.40;6.45;;;;;;;15.65;97.16;101350.38;4824030;29;20023;-91
2023/08/14 05:40:24;;;;;;;8.27;6.72;;;;;;;15.70;97.48;101356.31;4839813;29;20038;-91
2023/08/14 05:43:06;;;;;;;8.82;6.68;;;;;;;15.73;97.57;101353.53;4839938;29;20038;-91
2023/08/14 05:45:33;;;;;;;7.80;6.32;;;;;;;15.76;98.10;101356.06;4840150;29;20119;-90
2023/08/14 05:48:00;;;;;;;9.30;6.47;;;;;;;15.79;98.51;101355.94;4840659;29;20542;-91
2023/08/14 05:50:27;;;;;;;8.40;6.47;;;;;;;15.83;98.61;101352.28;4840261;29;20110;-91
2023/08/14 05:52:54;;;;;;;11.77;6.93;;;;;;;15.88;98.97;101360.00;4823005;29;20030;-90
2023/08/14 05:55:19;;;;;;;9.43;7.20;;;;;;;15.93;99.08;101368.56;4840194;29;20056;-91
2023/08/14 05:57:46;;;;;;;9.30;6.97;;;;;;;15.98;99.53;101377.06;4842364;29;20065;-91
2023/08/14 06:00:11;;;;;;;9.65;7.05;;;;;;;16.02;99.14;101367.31;4838091;29;20030;-90
2023/08/14 06:02:37;;;;;;;8.50;6.85;;;;;;;16.05;98.89;101370.66;4831728;29;20040;-91
2023/08/14 06:05:02;;;;;;;9.98;6.72;;;;;;;16.10;99.07;101372.25;4834094;29;20038;-91
2023/08/14 06:07:27;;;;;;;9.35;7.25;;;;;;;16.12;99.40;101376.53;4840487;29;20030;-91
2023/08/14 06:09:53;;;;;;;10.02;7.30;;;;;;;16.15;98.82;101379.03;4828354;29;20089;-90
2023/08/14 06:12:18;;;;;;;9.77;7.05;;;;;;;16.19;99.12;101385.88;4836734;29;20090;-90
2023/08/14 06:14:43;;;;;;;9.25;7.35;;;;;;;16.22;99.07;101380.50;4838668;29;20105;-91
2023/08/14 06:17:09;;;;;;;9.80;7.32;;;;;;;16.27;98.82;101389.94;4838865;29;20125;-91
2023/08/14 06:19:34;;;;;;;11.77;7.47;;;;;;;16.28;98.73;101386.41;4839479;29;20094;-90
2023/08/14 06:21:59;;;;;;;9.23;7.22;;;;;;;16.31;98.48;101394.16;4820990;29;20064;-91
2023/08/14 06:24:28;;;;;;;8.63;7.40;;;;;;;16.34;99.24;101404.53;4834308;29;20273;-90
2023/08/14 06:26:54;;;;;;;10.80;8.05;;;;;;;16.37;99.44;101396.53;4837538;29;20093;-90
2023/08/14 06:29:20;;;;;;;10.23;7.93;;;;;;;16.41;99.35;101394.63;4836757;29;20034;-91
2023/08/14 06:31:45;;;;;;;9.38;7.47;;;;;;;16.44;99.08;101384.84;4824798;29;20589;-90
2023/08/14 06:34:10;;;;;;;8.07;7.13;;;;;;;16.47;98.44;101379.47;4837678;29;20100;-92
2023/08/14 06:36:36;;;;;;;9.35;7.53;;;;;;;16.52;98.74;101377.50;4837018;29;20073;-90
2023/08/14 06:39:01;;;;;;;9.73;7.47;;;;;;;16.57;98.86;101377.31;4838726;29;20479;-89
2023/08/14 06:41:27;;;;;;;10.48;7.88;;;;;;;16.63;99.29;101365.69;4837814;29;20121;-90
2023/08/14 06:43:52;;;;;;;9.90;7.72;;;;;;;16.74;99.12;101363.44;4840833;29;20059;-90
2023/08/14 06:46:17;;;;;;;10.45;7.97;;;;;;;16.84;99.59;101367.38;4823347;29;20025;-91
2023/08/14 06:48:43;;;;;;;10.52;8.13;;;;;;;16.97;99.48;101374.75;4822110;29;20049;-91
2023/08/14 06:51:08;;;;;;;10.00;7.93;;;;;;;17.08;99.39;101366.41;4839522;29;20062;-91
2023/08/14 06:53:33;;;;;;;10.10;8.18;;;;;;;17.19;99.71;101355.41;4842259;29;20074;-90
2023/08/14 06:55:59;;;;;;;10.43;8.13;;;;;;;17.27;99.64;101358.50;4842293;29;20062;-91
2023/08/14 06:58:24;;;;;;;9.20;7.57;;;;;;;17.29;99.35;101357.53;4845175;29;20030;-91
2023/08/14 07:00:50;;;;;;;9.95;7.18;;;;;;;17.32;98.18;101360.97;4841115;29;20490;-91
2023/08/14 07:03:15;;;;;;;10.57;6.88;;;;;;;17.35;98.33;101359.03;4824381;29;20040;-90
2023/08/14 07:05:40;;;;;;;10.93;7.15;;;;;;;17.42;98.63;101360.44;4839817;29;20030;-90
2023/08/14 07:08:05;;;;;;;8.25;6.50;;;;;;;17.51;97.74;101360.94;4840901;29;20037;-90
2023/08/14 07:10:31;;;;;;;9.77;6.75;;;;;;;17.61;97.89;101364.84;4841009;29;20036;-91
2023/08/14 07:12:56;;;;;;;9.35;6.90;;;;;;;17.69;98.36;101362.72;4834007;29;20037;-90
2023/08/14 07:15:21;;;;;;;8.90;6.72;;;;;;;17.77;96.78;101364.13;4844039;29;20030;-91
2023/08/14 07:17:46;;;;;;;9.85;6.25;;;;;;;17.85;96.12;101365.44;4844656;29;20037;-90
2023/08/14 07:20:12;;;;;;;9.20;5.93;;;;;;;17.96;96.20;101362.31;4857213;29;20037;-91
2023/08/14 07:22:38;;;;;;;7.93;5.60;;;;;;;18.04;95.05;101365.47;4848207;29;20163;-90
2023/08/14 07:25:03;;;;;;;9.27;5.88;;;;;;;18.10;94.81;101358.19;4844087;29;20030;-91
2023/08/14 07:27:29;;;;;;;7.90;5.60;;;;;;;18.12;94.60;101364.22;4829197;29;20061;-91
2023/08/14 07:29:54;;;;;;;9.55;6.05;;;;;;;18.16;94.59;101363.13;4843414;29;20033;-89
2023/08/14 07:32:19;;;;;;;9.38;5.93;;;;;;;18.16;94.38;101357.88;4842553;29;20030;-89
2023/08/14 07:34:45;;;;;;;9.27;5.65;;;;;;;18.16;94.34;101353.47;4843375;29;20490;-90
2023/08/14 07:37:10;;;;;;;9.73;5.60;;;;;;;18.14;94.38;101357.09;4844346;29;20041;-90
2023/08/14 07:39:35;;;;;;;10.02;6.35;;;;;;;18.15;94.65;101366.69;4843490;29;20034;-89
2023/08/14 07:42:00;;;;;;;9.38;6.03;;;;;;;18.16;95.27;101368.41;4843000;29;20041;-90
2023/08/14 07:44:26;;;;;;;10.75;5.95;;;;;;;18.16;94.86;101368.41;4839900;29;20025;-91
2023/08/14 07:46:51;;;;;;;7.40;4.75;;;;;;;18.10;92.08;101374.84;4835422;29;20360;-91
2023/08/14 07:49:16;;;;;;;7.55;5.05;;;;;;;18.03;90.48;101379.56;4836491;29;20035;-90
2023/08/14 07:51:41;;;;;;;6.35;4.40;;;;;;;18.00;90.81;101389.38;4836526;29;20120;-91
2023/08/14 07:54:07;;;;;;;9.35;5.40;;;;;;;17.96;90.29;101388.63;4828911;29;20033;-90
2023/08/14 07:56:32;;;;;;;9.45;5.55;;;;;;;17.97;91.92;101387.69;4841684;29;20118;-91
2023/08/14 07:58:57;;;;;;;9.85;5.20;;;;;;;18.00;92.63;101381.50;4836944;29;20939;-90
2023/08/14 08:01:23;;;;;;;8.27;5.85;;;;;;;18.05;93.26;101376.84;4839200;29;20048;-91
2023/08/14 08:03:48;;;;;;;7.72;5.70;;;;;;;18.11;92.23;101376.53;4838702;29;20048;-92
2023/08/14 08:06:13;;;;;;;8.50;5.65;;;;;;;18.18;92.84;101371.81;4842780;29;20331;-92
2023/08/14 08:08:38;;;;;;;8.45;5.35;;;;;;;18.25;93.13;101377.63;4835376;29;20021;-91
2023/08/14 08:11:04;;;;;;;9.27;5.43;;;;;;;18.31;92.87;101388.72;4838705;29;20502;-91
2023/08/14 08:13:29;;;;;;;9.50;5.55;;;;;;;18.39;92.84;101382.22;4835612;29;20030;-91
2023/08/14 08:15:54;;;;;;;8.55;5.38;;;;;;;18.47;93.05;101382.69;4841396;29;20441;-91
2023/08/14 08:18:19;;;;;;;8.05;4.85;;;;;;;18.52;90.98;101391.22;4836267;29;20038;-92
2023/08/14 08:20:45;;;;;;;7.32;4.93;;;;;;;18.59;89.55;101392.63;4833512;29;20555;-91
2023/08/14 08:23:10;;;;;;;7.65;4.65;;;;;;;18.64;87.76;101380.03;4839106;29;20034;-92
2023/08/14 08:25:35;;;;;;;8.60;4.38;;;;;;;18.72;89.83;101368.25;4839173;29;20446;-96
2023/08/14 08:30:50;;;;;;;6.43;4.22;;;;;;;18.86;88.06;101367.56;5099027;23;20053;-90
2023/08/14 08:33:16;;;;;;;8.73;4.57;;;;;;;18.90;86.98;101359.38;4851084;29;20030;-93
2023/08/14 08:35:41;;;;;;;9.70;4.38;;;;;;;18.99;89.06;101359.84;4854382;29;20351;-95
2023/08/14 08:38:06;;;;;;;8.80;4.10;;;;;;;19.05;87.75;101362.19;4850488;29;20195;-94
2023/08/14 08:40:33;;;;;;;8.57;4.10;;;;;;;19.12;86.29;101355.66;4836664;29;20101;-92
2023/08/14 08:43:00;;;;;;;7.50;3.72;;;;;;;19.18;85.40;101357.09;4833572;29;20080;-91
2023/08/14 08:45:31;;;;;;;6.28;3.58;;;;;;;19.22;84.10;101359.50;4848971;29;20156;-90
2023/08/14 08:48:01;;;;;;;6.70;3.63;;;;;;;19.27;83.99;101361.88;4848854;29;20030;-95
2023/08/14 08:50:28;;;;;;;7.57;3.80;;;;;;;19.32;83.75;101358.97;4852355;29;20062;-93
2023/08/14 08:52:54;;;;;;;6.78;3.33;;;;;;;19.36;83.29;101349.97;4856852;29;20033;-90
2023/08/14 08:55:20;;;;;;;8.70;3.80;;;;;;;19.42;85.49;101347.00;4854958;29;20569;-95
2023/08/14 08:57:48;;;;;;;7.20;3.13;;;;;;;19.47;82.87;101352.00;4869426;29;20033;-92
2023/08/14 09:00:14;;;;;;;6.28;3.15;;;;;;;19.51;81.72;101353.56;4869845;29;20040;-88
2023/08/14 09:02:39;;;;;;;8.52;3.08;;;;;;;19.56;81.94;101351.50;4859632;29;20049;-89
2023/08/14 09:05:05;;;;;;;7.20;2.90;;;;;;;19.62;80.95;101345.03;4868865;29;20393;-90
2023/08/14 09:07:30;;;;;;;6.90;3.00;;;;;;;19.67;80.12;101338.56;4875595;29;20025;-90
2023/08/14 09:09:55;;;;;;;5.50;2.42;;;;;;;19.72;79.47;101340.94;4872329;29;20108;-90
2023/08/14 09:12:21;;;;;;;6.00;2.10;;;;;;;19.78;80.53;101340.59;4861870;29;20093;-92
2023/08/14 09:15:04;;;;;;;5.25;2.30;;;;;;;19.85;80.51;101333.19;4870049;29;20080;-91
2023/08/14 09:17:30;;;;;;;5.05;1.90;;;;;;;19.90;77.55;101338.22;4867184;29;20059;-91
2023/08/14 09:19:55;;;;;;;5.80;2.22;;;;;;;19.94;75.98;101339.75;4864861;29;20388;-91
2023/08/14 09:22:20;;;;;;;4.32;1.73;;;;;;;19.99;77.22;101340.31;4869634;29;20036;-92
2023/08/14 09:24:47;;;;;;;5.18;1.95;;;;;;;20.07;78.63;101340.75;4870646;29;20124;-90
2023/08/14 09:27:13;;;;;;;4.80;1.77;;;;;;;20.10;75.57;101330.00;4863445;29;20028;-90
2023/08/14 09:29:39;;;;;;;3.65;1.45;;;;;;;20.15;75.03;101335.84;4858880;29;20397;-91
2023/08/14 09:32:04;;;;;;;4.25;1.77;;;;;;;20.21;74.09;101339.94;4839479;29;20128;-84
2023/08/14 09:34:30;;;;;;;3.95;1.60;;;;;;;20.25;74.35;101337.97;4874781;29;20034;-90
2023/08/14 09:36:57;;;;;;;4.30;1.35;;;;;;;20.29;72.71;101344.78;4864371;29;20378;-91
2023/08/14 09:39:25;;;;;;;3.53;1.60;;;;;;;20.32;73.29;101353.38;4853933;29;20573;-90
2023/08/14 09:41:50;;;;;;;4.78;1.35;;;;;;;20.39;75.14;101348.56;4851084;29;20037;-93
2023/08/14 09:44:20;;;;;;;2.78;1.50;;;;;;;20.45;72.62;101353.50;4857637;29;20383;-89
2023/08/14 09:46:48;;;;;;;4.72;1.80;;;;;;;20.52;72.32;101361.03;4858952;29;20031;-91
2023/08/14 09:49:16;;;;;;;3.38;1.80;;;;;;;20.58;74.59;101355.41;4856689;29;20029;-90
2023/08/14 09:51:42;;;;;;;4.97;1.88;;;;;;;20.62;73.09;101357.75;4856070;29;20487;-90
2023/08/14 09:54:09;;;;;;;3.95;1.42;;;;;;;20.71;73.08;101360.81;4859779;29;20033;-90
2023/08/14 09:56:35;;;;;;;2.45;1.45;;;;;;;20.74;69.44;101357.97;4858908;29;20065;-93
2023/08/14 09:59:00;;;;;;;4.22;1.25;;;;;;;20.75;68.08;101351.75;4856730;29;20129;-92
2023/08/14 10:01:26;;;;;;;2.10;1.20;;;;;;;20.83;72.94;101349.50;4866901;29;20029;-90
2023/08/14 10:03:55;;;;;;;4.03;1.30;;;;;;;20.85;68.50;101347.63;4866543;29;20029;-90
2023/08/14 10:06:24;;;;;;;3.92;1.00;;;;;;;20.93;69.61;101347.16;4852343;29;20488;-91
2023/08/14 10:08:56;;;;;;;4.32;1.23;;;;;;;21.01;68.87;101346.66;4865922;29;20034;-90
2023/08/14 10:11:25;;;;;;;3.50;1.25;;;;;;;21.03;67.50;101335.03;4857742;29;20041;-90
2023/08/14 10:13:54;;;;;;;3.13;1.48;;;;;;;21.07;66.88;101335.72;4857734;29;20033;-90
2023/08/14 10:16:27;;;;;;;4.47;1.38;;;;;;;21.13;67.88;101329.19;4863504;29;20044;-91
2023/08/14 10:18:54;;;;;;;2.80;1.17;;;;;;;21.18;67.95;101317.38;4858205;29;20056;-91
2023/08/14 10:21:20;;;;;;;4.88;1.40;;;;;;;21.23;68.54;101309.13;4860197;29;20085;-91
2023/08/14 10:23:47;;;;;;;2.97;1.05;;;;;;;21.23;66.32;101303.84;4861567;29;20033;-94
2023/08/14 10:26:14;;;;;;;5.10;1.38;;;;;;;21.16;66.17;101299.91;4858486;29;20029;-91
2023/08/14 10:28:40;;;;;;;2.17;1.10;;;;;;;21.14;67.38;101305.28;4857904;29;20706;-92
2023/08/14 10:31:07;;;;;;;3.47;1.08;;;;;;;21.17;65.95;101293.66;4861099;29;20064;-94
2023/08/14 10:33:33;;;;;;;3.58;1.13;;;;;;;21.19;66.34;101287.31;4861017;29;20068;-89
2023/08/14 10:36:00;;;;;;;1.58;0.90;;;;;;;21.21;66.83;101288.06;4859797;29;20107;-95
2023/08/14 10:38:40;;;;;;;2.95;1.00;;;;;;;21.27;68.23;101283.31;4861891;29;20029;-92
2023/08/14 10:41:10;;;;;;;2.50;1.08;;;;;;;21.29;67.59;101282.28;4860133;29;20034;-92
2023/08/14 10:43:36;;;;;;;2.70;1.10;;;;;;;21.26;66.61;101276.34;4862274;29;20081;-94
2023/08/14 10:46:08;;;;;;;2.08;1.00;;;;;;;21.26;69.02;101274.53;4860812;29;20033;-94
2023/08/14 10:48:38;;;;;;;2.97;1.10;;;;;;;21.29;66.48;101274.34;4863759;29;20530;-94
2023/08/14 10:51:05;;;;;;;2.60;1.17;;;;;;;21.34;66.62;101274.91;4864652;29;20030;-94
2023/08/14 10:53:31;;;;;;;3.35;1.00;;;;;;;21.38;65.48;101268.44;4863015;29;20025;-94
2023/08/14 10:55:57;;;;;;;3.00;1.17;;;;;;;21.44;63.84;101261.06;4864002;29;20101;-94
2023/08/14 10:58:29;;;;;;;1.90;0.90;;;;;;;21.50;64.86;101282.69;4861470;29;20037;-94
2023/08/14 11:00:55;;;;;;;4.68;1.10;;;;;;;21.56;61.77;101288.53;4864775;29;20040;-93
2023/08/14 11:03:21;;;;;;;2.90;1.17;;;;;;;21.58;63.55;101282.19;4866772;29;20025;-94
2023/08/14 11:05:47;;;;;;;4.70;1.00;;;;;;;21.63;63.95;101279.25;4871605;29;20422;-93
2023/08/14 11:08:14;;;;;;;3.78;1.10;;;;;;;21.67;62.96;101280.75;4861520;29;20029;-94
2023/08/14 11:10:41;;;;;;;2.83;1.10;;;;;;;21.73;65.08;101274.22;4863514;29;20742;-94
2023/08/14 11:13:08;;;;;;;3.22;1.20;;;;;;;21.78;65.23;101272.94;4850546;29;20104;-95
2023/08/14 11:15:35;;;;;;;3.55;1.08;;;;;;;21.81;64.49;101282.50;4868686;29;20389;-94
2023/08/14 11:18:01;;;;;;;3.40;1.10;;;;;;;21.82;62.80;101285.03;4871538;29;20032;-94
2023/08/14 11:20:28;;;;;;;3.35;1.17;;;;;;;21.81;60.62;101279.84;4868079;29;20041;-91
2023/08/14 11:22:54;;;;;;;3.03;1.10;;;;;;;21.84;61.97;101282.31;4872419;29;21338;-90
2023/08/14 11:25:20;;;;;;;3.38;1.10;;;;;;;21.83;61.36;101280.59;4876146;29;20089;-90
2023/08/14 11:27:51;;;;;;;2.08;1.05;;;;;;;21.86;60.82;101285.72;4874193;29;20362;-90
2023/08/14 11:30:17;;;;;;;3.90;1.30;;;;;;;21.90;62.91;101281.88;4871346;29;20152;-90
2023/08/14 11:32:42;;;;;;;3.42;1.08;;;;;;;21.95;62.44;101279.78;4874714;29;20116;-92
2023/08/14 11:35:08;;;;;;;3.03;1.30;;;;;;;21.97;60.00;101272.59;4871922;29;21428;-92
2023/08/14 11:37:33;;;;;;;4.32;1.05;;;;;;;22.00;61.68;101274.16;4868832;29;20034;-91
2023/08/14 11:40:04;;;;;;;3.13;1.10;;;;;;;22.06;64.16;101270.25;4869025;29;20036;-93
2023/08/14 11:42:30;;;;;;;;;;;;;;;22.09;64.01;101275.34;4876198;29;20029;-91
2023/08/14 11:44:55;;;;;;;2.72;0.93;;;;;;;22.07;61.58;101261.34;4873058;29;20440;-91
2023/08/14 11:47:21;;;;;;;2.67;0.90;;;;;;;22.11;63.67;101266.34;4871435;29;20555;-90
2023/08/14 11:49:49;;;;;;;4.18;1.15;;;;;;;22.17;61.53;101266.88;4875719;29;20474;-90
2023/08/14 11:52:15;;;;;;;3.75;1.08;;;;;;;22.22;60.26;101275.38;4873555;29;20032;-90
2023/08/14 11:54:42;;;;;;;2.13;0.98;;;;;;;22.25;60.38;101275.16;4866265;29;20032;-92
2023/08/14 11:57:08;;;;;;;3.55;0.93;;;;;;;22.27;60.13;101268.78;4866965;29;20082;-91
2023/08/14 11:59:34;;;;;;;3.55;0.80;;;;;;;22.32;57.04;101275.59;4863147;29;20029;-90
2023/08/14 12:02:00;;;;;;;2.85;1.00;;;;;;;22.34;59.48;101273.69;4865168;29;20112;-92
2023/08/14 12:04:26;;;;;;;2.05;1.00;;;;;;;22.38;59.96;101264.53;4868309;29;20037;-92
2023/08/14 12:06:54;;;;;;;2.92;0.95;;;;;;;22.42;59.61;101260.75;4865014;29;20036;-90
2023/08/14 12:09:19;;;;;;;4.13;1.02;;;;;;;22.43;58.66;101259.81;4867088;29;20064;-92
2023/08/14 12:11:44;;;;;;;2.42;1.10;;;;;;;22.45;60.81;101255.25;4858911;29;20076;-85
2023/08/14 12:14:10;;;;;;;3.60;1.10;;;;;;;22.48;60.36;101255.03;4874101;29;20036;-89
2023/08/14 12:16:39;;;;;;;4.55;1.17;;;;;;;22.50;61.56;101242.53;4843441;29;20116;-91
2023/08/14 12:19:11;;;;;;;2.63;1.10;;;;;;;22.54;61.95;101248.47;4856664;29;20052;-92
2023/08/14 12:21:38;;;;;;;2.55;0.98;;;;;;;22.57;59.96;101249.09;4861658;29;20040;-90
2023/08/14 12:24:04;;;;;;;3.10;1.17;;;;;;;22.62;59.72;101245.25;4857797;29;20033;-92
2023/08/14 12:26:40;;;;;;;2.25;1.00;;;;;;;22.67;61.32;101243.16;4859933;29;20037;-92
2023/08/14 12:29:06;;;;;;;2.50;1.20;;;;;;;22.68;61.00;101240.38;4861453;29;20112;-92
2023/08/14 12:31:32;;;;;;;3.85;0.90;;;;;;;22.71;60.52;101234.84;4858919;29;20162;-93
2023/08/14 12:33:57;;;;;;;2.70;0.90;;;;;;;22.73;59.27;101240.03;4863673;29;20029;-91
2023/08/14 12:36:23;;;;;;;2.65;0.98;;;;;;;22.75;59.90;101243.44;4861050;29;20035;-89
2023/08/14 12:38:48;;;;;;;5.13;1.30;;;;;;;22.78;57.97;101237.06;4869960;29;20033;-89
2023/08/14 12:41:13;;;;;;;3.17;1.05;;;;;;;22.83;60.98;101235.78;4856574;29;20159;-90
2023/08/14 12:43:38;;;;;;;3.03;1.00;;;;;;;22.85;59.47;101236.53;4867203;29;20033;-91
2023/08/14 12:46:04;;;;;;;2.63;1.10;;;;;;;22.87;59.03;101229.31;4863035;29;20382;-92
2023/08/14 12:48:29;;;;;;;2.50;1.02;;;;;;;22.88;60.81;101231.00;4860097;29;20477;-92
2023/08/14 12:50:54;;;;;;;2.95;1.00;;;;;;;22.91;59.95;101229.06;4863226;29;20037;-90
2023/08/14 12:53:19;;;;;;;4.35;1.13;;;;;;;22.98;61.92;101225.03;4867818;29;20025;-91
2023/08/14 12:55:45;;;;;;;2.58;1.13;;;;;;;23.02;59.24;101216.72;4854492;29;20028;-91
2023/08/14 12:58:11;;;;;;;3.08;1.10;;;;;;;23.05;59.27;101215.66;4861263;29;20061;-90
2023/08/14 13:00:36;;;;;;;4.93;1.30;;;;;;;23.09;60.32;101209.16;4862847;29;20036;-90
2023/08/14 13:03:02;;;;;;;2.92;1.02;;;;;;;23.11;59.84;101201.94;4861532;29;20041;-90
2023/08/14 13:05:28;;;;;;;3.28;1.15;;;;;;;23.13;58.28;101202.66;4857907;29;20033;-93
2023/08/14 13:07:53;;;;;;;2.33;0.98;;;;;;;23.17;60.23;101193.53;4860136;29;20096;-92
2023/08/14 13:10:18;;;;;;;3.70;1.00;;;;;;;23.22;57.85;101201.19;4846037;29;20088;-90